sensor_id;sensor_type;location;lat;lon;timestamp;pressure;altitude;pressure_sealevel;temperature;humidity
50702;BME280;36670;50.094;8.496;2023-10-19T00:01:58;98612.53;;;14.34;66.53
50702;BME280;36670;50.094;8.496;2023-10-19T00:04:26;98612.84;;;14.02;68.53
50702;BME280;36670;50.094;8.496;2023-10-19T00:06:56;98611.81;;;14.20;67.01
50702;BME280;36670;50.094;8.496;2023-10-19T00:09:22;98610.00;;;14.15;67.83
50702;BME280;36670;50.094;8.496;2023-10-19T00:11:47;98601.78;;;14.10;68.08
50702;BME280;36670;50.094;8.496;2023-10-19T00:14:16;98606.69;;;14.13;67.47
50702;BME280;36670;50.094;8.496;2023-10-19T00:16:43;98599.41;;;14.26;67.45
50702;BME280;36670;50.094;8.496;2023-10-19T00:19:15;98600.28;;;14.36;68.06
50702;BME280;36670;50.094;8.496;2023-10-19T00:21:44;98605.59;;;14.23;67.45
50702;BME280;36670;50.094;8.496;2023-10-19T00:24:17;98604.44;;;14.15;68.27
50702;BME280;36670;50.094;8.496;2023-10-19T00:26:43;98595.72;;;14.40;66.96
50702;BME280;36670;50.094;8.496;2023-10-19T00:29:09;98596.09;;;14.56;67.29
50702;BME280;36670;50.094;8.496;2023-10-19T00:31:53;98590.84;;;14.45;67.36
50702;BME280;36670;50.094;8.496;2023-10-19T00:34:21;98577.53;;;14.25;67.72
50702;BME280;36670;50.094;8.496;2023-10-19T00:36:46;98589.53;;;14.43;67.03
50702;BME280;36670;50.094;8.496;2023-10-19T00:39:13;98594.03;;;14.61;66.58
50702;BME280;36670;50.094;8.496;2023-10-19T00:41:41;98591.84;;;14.98;65.97
50702;BME280;36670;50.094;8.496;2023-10-19T00:44:08;98576.50;;;14.92;66.02
50702;BME280;36670;50.094;8.496;2023-10-19T00:46:37;98577.66;;;15.09;65.53
50702;BME280;36670;50.094;8.496;2023-10-19T00:49:09;98586.66;;;15.23;64.84
50702;BME280;36670;50.094;8.496;2023-10-19T00:51:47;98585.03;;;15.66;64.47
50702;BME280;36670;50.094;8.496;2023-10-19T00:54:38;98567.34;;;15.79;63.39
50702;BME280;36670;50.094;8.496;2023-10-19T00:57:18;98578.81;;;15.43;63.97
50702;BME280;36670;50.094;8.496;2023-10-19T00:59:57;98570.97;;;15.36;63.60
50702;BME280;36670;50.094;8.496;2023-10-19T01:02:36;98572.09;;;15.26;63.89
50702;BME280;36670;50.094;8.496;2023-10-19T01:05:08;98552.31;;;14.52;66.22
50702;BME280;36670;50.094;8.496;2023-10-19T01:07:33;98563.25;;;14.98;64.76
50702;BME280;36670;50.094;8.496;2023-10-19T01:10:04;98552.16;;;15.33;64.50
50702;BME280;36670;50.094;8.496;2023-10-19T01:12:31;98551.81;;;15.17;64.40
50702;BME280;36670;50.094;8.496;2023-10-19T01:15:10;98540.88;;;15.03;65.13
50702;BME280;36670;50.094;8.496;2023-10-19T01:17:49;98541.69;;;15.56;64.39
50702;BME280;36670;50.094;8.496;2023-10-19T01:20:21;98544.78;;;15.46;63.74
50702;BME280;36670;50.094;8.496;2023-10-19T01:23:08;98544.28;;;15.52;63.58
50702;BME280;36670;50.094;8.496;2023-10-19T01:28:42;98545.56;;;15.73;63.19
50702;BME280;36670;50.094;8.496;2023-10-19T01:31:17;98536.06;;;15.74;63.06
50702;BME280;36670;50.094;8.496;2023-10-19T01:33:59;98531.53;;;15.43;63.22
50702;BME280;36670;50.094;8.496;2023-10-19T01:36:26;98530.06;;;15.54;63.34
50702;BME280;36670;50.094;8.496;2023-10-19T01:38:56;98525.34;;;15.37;63.15
50702;BME280;36670;50.094;8.496;2023-10-19T01:41:26;98520.41;;;15.51;63.14
50702;BME280;36670;50.094;8.496;2023-10-19T01:43:53;98519.13;;;15.40;63.13
50702;BME280;36670;50.094;8.496;2023-10-19T01:46:19;98520.75;;;15.15;64.54
50702;BME280;36670;50.094;8.496;2023-10-19T01:49:11;98526.00;;;15.16;65.08
50702;BME280;36670;50.094;8.496;2023-10-19T01:51:37;98526.16;;;15.29;64.68
50702;BME280;36670;50.094;8.496;2023-10-19T01:54:07;98522.41;;;15.25;64.41
50702;BME280;36670;50.094;8.496;2023-10-19T01:56:33;98518.63;;;15.21;64.70
50702;BME280;36670;50.094;8.496;2023-10-19T01:59:02;98516.16;;;15.54;63.71
50702;BME280;36670;50.094;8.496;2023-10-19T02:01:29;98522.03;;;15.52;63.91
50702;BME280;36670;50.094;8.496;2023-10-19T02:03:56;98510.63;;;15.19;64.82
50702;BME280;36670;50.094;8.496;2023-10-19T02:06:29;98510.44;;;15.15;64.99
50702;BME280;36670;50.094;8.496;2023-10-19T02:09:10;98514.38;;;15.41;64.58
50702;BME280;36670;50.094;8.496;2023-10-19T02:11:46;98508.13;;;15.70;64.54
50702;BME280;36670;50.094;8.496;2023-10-19T02:14:13;98503.38;;;15.62;63.89
50702;BME280;36670;50.094;8.496;2023-10-19T02:16:47;98491.91;;;15.81;62.98
50702;BME280;36670;50.094;8.496;2023-10-19T02:19:16;98498.19;;;15.34;63.93
50702;BME280;36670;50.094;8.496;2023-10-19T02:21:43;98500.97;;;15.08;65.60
50702;BME280;36670;50.094;8.496;2023-10-19T02:24:10;98486.56;;;15.41;64.24
50702;BME280;36670;50.094;8.496;2023-10-19T02:26:42;98490.53;;;15.05;65.14
50702;BME280;36670;50.094;8.496;2023-10-19T02:29:08;98487.72;;;15.40;65.15
50702;BME280;36670;50.094;8.496;2023-10-19T02:31:35;98476.25;;;15.50;64.51
50702;BME280;36670;50.094;8.496;2023-10-19T02:34:03;98479.00;;;16.15;63.47
50702;BME280;36670;50.094;8.496;2023-10-19T02:36:31;98460.09;;;16.29;62.48
50702;BME280;36670;50.094;8.496;2023-10-19T02:38:57;98471.88;;;16.56;61.95
50702;BME280;36670;50.094;8.496;2023-10-19T02:41:26;98461.50;;;16.44;61.88
50702;BME280;36670;50.094;8.496;2023-10-19T02:43:55;98464.91;;;16.20;62.62
50702;BME280;36670;50.094;8.496;2023-10-19T02:46:32;98466.69;;;16.25;62.44
50702;BME280;36670;50.094;8.496;2023-10-19T02:49:02;98467.53;;;16.46;61.48
50702;BME280;36670;50.094;8.496;2023-10-19T02:51:28;98465.19;;;16.27;62.39
50702;BME280;36670;50.094;8.496;2023-10-19T02:53:54;98460.44;;;15.89;63.45
50702;BME280;36670;50.094;8.496;2023-10-19T02:56:19;98457.25;;;15.61;63.24
50702;BME280;36670;50.094;8.496;2023-10-19T02:58:46;98457.00;;;15.92;63.34
50702;BME280;36670;50.094;8.496;2023-10-19T03:01:19;98458.25;;;15.56;63.98
50702;BME280;36670;50.094;8.496;2023-10-19T03:03:51;98455.44;;;15.65;63.86
50702;BME280;36670;50.094;8.496;2023-10-19T03:06:20;98464.94;;;15.55;64.24
50702;BME280;36670;50.094;8.496;2023-10-19T03:08:47;98453.06;;;15.93;63.43
50702;BME280;36670;50.094;8.496;2023-10-19T03:11:13;98443.56;;;16.24;63.25
50702;BME280;36670;50.094;8.496;2023-10-19T03:13:39;98452.84;;;16.37;62.63
50702;BME280;36670;50.094;8.496;2023-10-19T03:16:06;98455.94;;;16.65;61.96
50702;BME280;36670;50.094;8.496;2023-10-19T03:18:33;98449.41;;;16.61;61.33
50702;BME280;36670;50.094;8.496;2023-10-19T03:21:01;98447.03;;;16.51;61.81
50702;BME280;36670;50.094;8.496;2023-10-19T03:23:26;98446.59;;;16.40;61.99
50702;BME280;36670;50.094;8.496;2023-10-19T03:25:56;98450.78;;;16.76;61.65
50702;BME280;36670;50.094;8.496;2023-10-19T03:28:40;98439.41;;;16.60;61.30
50702;BME280;36670;50.094;8.496;2023-10-19T03:31:06;98444.28;;;16.42;61.97
50702;BME280;36670;50.094;8.496;2023-10-19T03:33:32;98441.47;;;16.51;62.26
50702;BME280;36670;50.094;8.496;2023-10-19T03:35:58;98435.22;;;16.24;62.66
50702;BME280;36670;50.094;8.496;2023-10-19T03:38:23;98433.44;;;16.49;62.39
50702;BME280;36670;50.094;8.496;2023-10-19T03:40:49;98423.38;;;16.57;62.62
50702;BME280;36670;50.094;8.496;2023-10-19T03:43:20;98433.91;;;16.51;62.14
50702;BME280;36670;50.094;8.496;2023-10-19T03:45:48;98430.00;;;16.73;61.70
50702;BME280;36670;50.094;8.496;2023-10-19T03:48:18;98434.69;;;16.82;61.82
50702;BME280;36670;50.094;8.496;2023-10-19T03:50:51;98431.56;;;16.83;62.01
50702;BME280;36670;50.094;8.496;2023-10-19T03:53:18;98428.56;;;16.67;61.97
50702;BME280;36670;50.094;8.496;2023-10-19T03:55:44;98426.09;;;16.66;62.05
50702;BME280;36670;50.094;8.496;2023-10-19T03:58:09;98422.94;;;16.55;62.45
50702;BME280;36670;50.094;8.496;2023-10-19T04:00:37;98413.44;;;16.26;62.96
50702;BME280;36670;50.094;8.496;2023-10-19T04:03:02;98406.66;;;16.36;62.92
50702;BME280;36670;50.094;8.496;2023-10-19T04:05:27;98399.38;;;16.23;63.30
50702;BME280;36670;50.094;8.496;2023-10-19T04:07:53;98401.09;;;16.57;62.86
50702;BME280;36670;50.094;8.496;2023-10-19T04:10:22;98389.41;;;16.64;61.71
50702;BME280;36670;50.094;8.496;2023-10-19T04:13:00;98390.81;;;16.28;63.21
50702;BME280;36670;50.094;8.496;2023-10-19T04:15:27;98394.16;;;16.42;62.87
50702;BME280;36670;50.094;8.496;2023-10-19T04:17:54;98371.66;;;16.68;62.18
50702;BME280;36670;50.094;8.496;2023-10-19T04:20:23;98367.09;;;16.85;62.30
50702;BME280;36670;50.094;8.496;2023-10-19T04:23:00;98374.53;;;16.60;62.18
50702;BME280;36670;50.094;8.496;2023-10-19T04:25:31;98362.97;;;16.07;63.90
50702;BME280;36670;50.094;8.496;2023-10-19T04:27:57;98362.28;;;15.80;64.76
50702;BME280;36670;50.094;8.496;2023-10-19T04:30:22;98372.72;;;16.13;64.06
50702;BME280;36670;50.094;8.496;2023-10-19T04:32:48;98368.88;;;16.68;63.29
50702;BME280;36670;50.094;8.496;2023-10-19T04:35:17;98371.28;;;17.00;62.68
50702;BME280;36670;50.094;8.496;2023-10-19T04:37:50;98367.53;;;16.96;62.77
50702;BME280;36670;50.094;8.496;2023-10-19T04:40:20;98370.28;;;17.17;62.16
50702;BME280;36670;50.094;8.496;2023-10-19T04:42:47;98365.50;;;17.17;61.74
50702;BME280;36670;50.094;8.496;2023-10-19T04:45:12;98365.28;;;16.68;62.66
50702;BME280;36670;50.094;8.496;2023-10-19T04:47:39;98362.09;;;16.57;63.25
50702;BME280;36670;50.094;8.496;2023-10-19T04:50:07;98362.31;;;16.73;61.85
50702;BME280;36670;50.094;8.496;2023-10-19T04:52:33;98361.47;;;16.94;61.81
50702;BME280;36670;50.094;8.496;2023-10-19T04:54:59;98365.94;;;17.07;61.33
50702;BME280;36670;50.094;8.496;2023-10-19T04:57:24;98362.97;;;17.25;61.61
50702;BME280;36670;50.094;8.496;2023-10-19T04:59:51;98377.50;;;17.18;61.60
50702;BME280;36670;50.094;8.496;2023-10-19T05:02:16;98384.84;;;17.01;61.99
50702;BME280;36670;50.094;8.496;2023-10-19T05:04:42;98389.47;;;17.31;61.21
50702;BME280;36670;50.094;8.496;2023-10-19T05:07:09;98392.53;;;17.04;62.13
50702;BME280;36670;50.094;8.496;2023-10-19T05:09:37;98374.91;;;17.13;61.78
50702;BME280;36670;50.094;8.496;2023-10-19T05:12:04;98367.94;;;17.06;61.17
50702;BME280;36670;50.094;8.496;2023-10-19T05:14:34;98366.97;;;17.02;62.13
50702;BME280;36670;50.094;8.496;2023-10-19T05:17:01;98367.31;;;17.34;60.69
50702;BME280;36670;50.094;8.496;2023-10-19T05:19:29;98371.06;;;17.05;61.64
50702;BME280;36670;50.094;8.496;2023-10-19T05:21:56;98360.47;;;16.98;61.12
50702;BME280;36670;50.094;8.496;2023-10-19T05:24:21;98361.47;;;16.72;62.10
50702;BME280;36670;50.094;8.496;2023-10-19T05:26:46;98356.84;;;16.98;61.95
50702;BME280;36670;50.094;8.496;2023-10-19T05:29:11;98358.53;;;17.11;61.58
50702;BME280;36670;50.094;8.496;2023-10-19T05:31:37;98360.56;;;17.02;61.97
50702;BME280;36670;50.094;8.496;2023-10-19T05:34:03;98356.91;;;17.22;61.66
50702;BME280;36670;50.094;8.496;2023-10-19T05:36:29;98355.06;;;17.27;60.89
50702;BME280;36670;50.094;8.496;2023-10-19T05:38:54;98366.63;;;17.04;61.94
50702;BME280;36670;50.094;8.496;2023-10-19T05:41:19;98363.25;;;16.77;62.54
50702;BME280;36670;50.094;8.496;2023-10-19T05:43:46;98362.22;;;16.82;62.63
50702;BME280;36670;50.094;8.496;2023-10-19T05:46:12;98360.91;;;17.00;62.16
50702;BME280;36670;50.094;8.496;2023-10-19T05:48:38;98359.03;;;16.71;62.98
50702;BME280;36670;50.094;8.496;2023-10-19T05:51:04;98367.44;;;16.83;62.68
50702;BME280;36670;50.094;8.496;2023-10-19T05:53:29;98357.03;;;16.59;62.98
50702;BME280;36670;50.094;8.496;2023-10-19T05:55:55;98361.91;;;16.62;63.52
50702;BME280;36670;50.094;8.496;2023-10-19T05:58:20;98359.53;;;16.73;62.52
50702;BME280;36670;50.094;8.496;2023-10-19T06:00:45;98371.31;;;16.70;63.07
50702;BME280;36670;50.094;8.496;2023-10-19T06:03:11;98375.56;;;16.34;64.06
50702;BME280;36670;50.094;8.496;2023-10-19T06:05:36;98377.44;;;16.84;63.14
50702;BME280;36670;50.094;8.496;2023-10-19T06:08:02;98363.22;;;16.44;63.77
50702;BME280;36670;50.094;8.496;2023-10-19T06:10:28;98366.25;;;16.30;64.33
50702;BME280;36670;50.094;8.496;2023-10-19T06:12:54;98363.91;;;16.11;65.10
50702;BME280;36670;50.094;8.496;2023-10-19T06:15:21;98369.72;;;16.48;64.65
50702;BME280;36670;50.094;8.496;2023-10-19T06:17:49;98365.34;;;16.80;63.67
50702;BME280;36670;50.094;8.496;2023-10-19T06:20:15;98358.28;;;16.41;64.77
50702;BME280;36670;50.094;8.496;2023-10-19T06:22:53;98364.16;;;16.69;64.09
50702;BME280;36670;50.094;8.496;2023-10-19T06:25:23;98363.94;;;16.95;63.48
50702;BME280;36670;50.094;8.496;2023-10-19T06:27:49;98368.72;;;17.07;63.16
50702;BME280;36670;50.094;8.496;2023-10-19T06:30:16;98366.16;;;17.02;63.36
50702;BME280;36670;50.094;8.496;2023-10-19T06:32:48;98372.31;;;16.95;63.17
50702;BME280;36670;50.094;8.496;2023-10-19T06:35:14;98356.31;;;17.17;63.19
50702;BME280;36670;50.094;8.496;2023-10-19T06:37:39;98379.03;;;17.28;62.92
50702;BME280;36670;50.094;8.496;2023-10-19T06:40:05;98366.13;;;17.35;62.44
50702;BME280;36670;50.094;8.496;2023-10-19T06:42:31;98373.59;;;17.44;62.70
50702;BME280;36670;50.094;8.496;2023-10-19T06:44:56;98367.44;;;17.50;62.46
50702;BME280;36670;50.094;8.496;2023-10-19T06:47:22;98377.28;;;17.35;63.41
50702;BME280;36670;50.094;8.496;2023-10-19T06:49:48;98363.88;;;17.62;62.23
50702;BME280;36670;50.094;8.496;2023-10-19T06:52:13;98365.22;;;17.56;62.80
50702;BME280;36670;50.094;8.496;2023-10-19T06:54:38;98369.47;;;17.74;62.06
50702;BME280;36670;50.094;8.496;2023-10-19T06:57:04;98357.56;;;17.53;62.82
50702;BME280;36670;50.094;8.496;2023-10-19T06:59:29;98363.38;;;17.60;62.92
50702;BME280;36670;50.094;8.496;2023-10-19T07:01:54;98355.13;;;17.51;62.90
50702;BME280;36670;50.094;8.496;2023-10-19T07:04:19;98369.75;;;17.36;63.20
50702;BME280;36670;50.094;8.496;2023-10-19T07:06:45;98378.28;;;17.64;62.44
50702;BME280;36670;50.094;8.496;2023-10-19T07:09:12;98382.25;;;17.88;62.63
50702;BME280;36670;50.094;8.496;2023-10-19T07:11:38;98388.91;;;18.08;61.96
50702;BME280;36670;50.094;8.496;2023-10-19T07:14:03;98377.84;;;18.12;62.14
50702;BME280;36670;50.094;8.496;2023-10-19T07:16:31;98380.19;;;18.22;61.56
50702;BME280;36670;50.094;8.496;2023-10-19T07:18:57;98374.13;;;18.20;61.54
50702;BME280;36670;50.094;8.496;2023-10-19T07:21:24;98370.41;;;18.03;62.02
50702;BME280;36670;50.094;8.496;2023-10-19T07:23:49;98368.50;;;18.32;60.86
50702;BME280;36670;50.094;8.496;2023-10-19T07:26:17;98371.91;;;18.25;61.04
50702;BME280;36670;50.094;8.496;2023-10-19T07:28:44;98370.03;;;18.17;61.47
50702;BME280;36670;50.094;8.496;2023-10-19T07:31:09;98365.72;;;18.32;61.02
50702;BME280;36670;50.094;8.496;2023-10-19T07:33:40;98371.28;;;18.45;61.20
50702;BME280;36670;50.094;8.496;2023-10-19T07:36:13;98361.75;;;18.33;61.26
50702;BME280;36670;50.094;8.496;2023-10-19T07:38:43;98365.56;;;18.41;60.61
50702;BME280;36670;50.094;8.496;2023-10-19T07:41:10;98379.09;;;18.39;61.08
50702;BME280;36670;50.094;8.496;2023-10-19T07:43:36;98374.88;;;18.45;61.19
50702;BME280;36670;50.094;8.496;2023-10-19T07:46:01;98379.53;;;18.41;61.28
50702;BME280;36670;50.094;8.496;2023-10-19T07:48:27;98381.34;;;18.21;62.06
50702;BME280;36670;50.094;8.496;2023-10-19T07:50:52;98356.44;;;18.03;62.03
50702;BME280;36670;50.094;8.496;2023-10-19T07:53:18;98376.06;;;18.44;61.85
50702;BME280;36670;50.094;8.496;2023-10-19T07:55:44;98376.25;;;18.64;60.88
50702;BME280;36670;50.094;8.496;2023-10-19T07:58:09;98373.28;;;18.44;61.15
50702;BME280;36670;50.094;8.496;2023-10-19T08:00:35;98376.31;;;18.39;61.24
50702;BME280;36670;50.094;8.496;2023-10-19T08:03:01;98368.81;;;18.55;61.19
50702;BME280;36670;50.094;8.496;2023-10-19T08:05:27;98362.56;;;18.34;60.94
50702;BME280;36670;50.094;8.496;2023-10-19T08:07:53;98364.44;;;18.30;61.50
50702;BME280;36670;50.094;8.496;2023-10-19T08:10:20;98365.50;;;18.13;61.88
50702;BME280;36670;50.094;8.496;2023-10-19T08:12:47;98366.66;;;18.12;62.20
50702;BME280;36670;50.094;8.496;2023-10-19T08:15:13;98366.53;;;17.83;62.42
50702;BME280;36670;50.094;8.496;2023-10-19T08:17:41;98352.22;;;17.60;62.67
50702;BME280;36670;50.094;8.496;2023-10-19T08:20:08;98353.03;;;17.73;62.47
50702;BME280;36670;50.094;8.496;2023-10-19T08:22:38;98354.03;;;17.19;63.66
50702;BME280;36670;50.094;8.496;2023-10-19T08:25:04;98359.28;;;17.45;63.55
50702;BME280;36670;50.094;8.496;2023-10-19T08:27:37;98362.44;;;17.56;63.30
50702;BME280;36670;50.094;8.496;2023-10-19T08:30:02;98366.19;;;17.72;63.76
50702;BME280;36670;50.094;8.496;2023-10-19T08:32:28;98382.81;;;17.81;63.65
50702;BME280;36670;50.094;8.496;2023-10-19T08:34:54;98371.34;;;17.95;63.15
50702;BME280;36670;50.094;8.496;2023-10-19T08:37:19;98372.84;;;18.17;63.60
50702;BME280;36670;50.094;8.496;2023-10-19T08:39:44;98378.25;;;18.38;63.08
50702;BME280;36670;50.094;8.496;2023-10-19T08:42:10;98371.16;;;18.41;62.33
50702;BME280;36670;50.094;8.496;2023-10-19T08:44:35;98382.84;;;18.18;62.75
50702;BME280;36670;50.094;8.496;2023-10-19T08:47:01;98380.09;;;18.59;62.17
50702;BME280;36670;50.094;8.496;2023-10-19T08:49:26;98367.41;;;18.62;61.33
50702;BME280;36670;50.094;8.496;2023-10-19T08:51:53;98354.91;;;18.31;62.19
50702;BME280;36670;50.094;8.496;2023-10-19T08:54:19;98345.47;;;18.23;62.19
50702;BME280;36670;50.094;8.496;2023-10-19T08:56:44;98342.25;;;17.96;63.11
50702;BME280;36670;50.094;8.496;2023-10-19T08:59:13;98342.47;;;17.66;63.71
50702;BME280;36670;50.094;8.496;2023-10-19T09:01:40;98340.59;;;17.83;63.33
50702;BME280;36670;50.094;8.496;2023-10-19T09:04:10;98338.72;;;17.37;64.84
50702;BME280;36670;50.094;8.496;2023-10-19T09:06:35;98332.00;;;17.75;64.43
50702;BME280;36670;50.094;8.496;2023-10-19T09:09:11;98335.25;;;17.90;63.61
50702;BME280;36670;50.094;8.496;2023-10-19T09:11:45;98334.69;;;17.97;64.58
50702;BME280;36670;50.094;8.496;2023-10-19T09:14:12;98341.28;;;18.29;63.73
50702;BME280;36670;50.094;8.496;2023-10-19T09:16:38;98343.31;;;18.04;64.36
50702;BME280;36670;50.094;8.496;2023-10-19T09:19:03;98329.31;;;18.69;62.83
50702;BME280;36670;50.094;8.496;2023-10-19T09:21:29;98333.66;;;18.83;62.23
50702;BME280;36670;50.094;8.496;2023-10-19T09:23:56;98320.03;;;18.53;63.26
50702;BME280;36670;50.094;8.496;2023-10-19T09:26:23;98321.59;;;18.66;63.26
50702;BME280;36670;50.094;8.496;2023-10-19T09:28:49;98322.19;;;18.72;62.95
50702;BME280;36670;50.094;8.496;2023-10-19T09:31:16;98313.00;;;18.59;63.50
50702;BME280;36670;50.094;8.496;2023-10-19T09:33:43;98318.69;;;18.34;64.62
50702;BME280;36670;50.094;8.496;2023-10-19T09:36:10;98318.41;;;18.80;63.08
50702;BME280;36670;50.094;8.496;2023-10-19T09:38:47;98305.97;;;19.22;62.49
50702;BME280;36670;50.094;8.496;2023-10-19T09:41:21;98301.28;;;19.58;61.30
50702;BME280;36670;50.094;8.496;2023-10-19T09:43:48;98298.41;;;19.70;60.89
50702;BME280;36670;50.094;8.496;2023-10-19T09:46:27;98298.41;;;19.38;62.06
50702;BME280;36670;50.094;8.496;2023-10-19T09:48:56;98297.78;;;19.45;61.73
50702;BME280;36670;50.094;8.496;2023-10-19T09:51:22;98292.41;;;18.92;62.79
50702;BME280;36670;50.094;8.496;2023-10-19T09:57:03;98297.94;;;19.20;62.41
50702;BME280;36670;50.094;8.496;2023-10-19T09:59:38;98284.50;;;19.58;61.90
50702;BME280;36670;50.094;8.496;2023-10-19T10:02:10;98285.50;;;19.66;61.62
50702;BME280;36670;50.094;8.496;2023-10-19T10:04:39;98284.47;;;19.90;60.93
50702;BME280;36670;50.094;8.496;2023-10-19T10:07:06;98288.53;;;20.08;60.73
50702;BME280;36670;50.094;8.496;2023-10-19T10:09:38;98297.56;;;20.02;60.98
50702;BME280;36670;50.094;8.496;2023-10-19T10:12:23;98293.88;;;19.50;60.96
50702;BME280;36670;50.094;8.496;2023-10-19T10:14:56;98294.78;;;19.06;62.35
50702;BME280;36670;50.094;8.496;2023-10-19T10:17:24;98296.97;;;19.28;61.71
50702;BME280;36670;50.094;8.496;2023-10-19T10:19:53;98288.94;;;19.11;62.54
50702;BME280;36670;50.094;8.496;2023-10-19T10:22:21;98296.03;;;18.80;63.17
50702;BME280;36670;50.094;8.496;2023-10-19T10:24:46;98305.00;;;19.46;62.33
50702;BME280;36670;50.094;8.496;2023-10-19T10:27:15;98298.78;;;19.53;62.26
50702;BME280;36670;50.094;8.496;2023-10-19T10:29:59;98288.59;;;20.12;61.41
50702;BME280;36670;50.094;8.496;2023-10-19T10:32:51;98292.97;;;20.49;60.35
50702;BME280;36670;50.094;8.496;2023-10-19T10:38:02;98300.44;;;20.05;61.35
50702;BME280;36670;50.094;8.496;2023-10-19T10:40:30;98296.50;;;20.26;60.79
50702;BME280;36670;50.094;8.496;2023-10-19T10:43:06;98299.25;;;20.42;60.04
50702;BME280;36670;50.094;8.496;2023-10-19T10:45:32;98285.00;;;20.51;60.28
50702;BME280;36670;50.094;8.496;2023-10-19T10:47:57;98298.94;;;20.47;60.77
50702;BME280;36670;50.094;8.496;2023-10-19T10:50:22;98299.53;;;20.37;60.62
50702;BME280;36670;50.094;8.496;2023-10-19T10:52:48;98289.22;;;20.60;60.36
50702;BME280;36670;50.094;8.496;2023-10-19T10:55:14;98290.63;;;20.70;60.30
50702;BME280;36670;50.094;8.496;2023-10-19T10:57:43;98276.44;;;20.63;60.37
50702;BME280;36670;50.094;8.496;2023-10-19T11:00:12;98274.00;;;21.01;59.82
50702;BME280;36670;50.094;8.496;2023-10-19T11:02:41;98275.94;;;20.96;59.70
50702;BME280;36670;50.094;8.496;2023-10-19T11:05:11;98279.38;;;21.33;58.66
50702;BME280;36670;50.094;8.496;2023-10-19T11:07:38;98273.69;;;21.06;59.67
50702;BME280;36670;50.094;8.496;2023-10-19T11:10:04;98269.38;;;21.12;59.03
50702;BME280;36670;50.094;8.496;2023-10-19T11:12:29;98262.81;;;20.42;60.04
50702;BME280;36670;50.094;8.496;2023-10-19T11:14:55;98263.25;;;20.63;59.62
50702;BME280;36670;50.094;8.496;2023-10-19T11:17:22;98259.25;;;20.64;59.87
50702;BME280;36670;50.094;8.496;2023-10-19T11:19:57;98255.81;;;20.71;58.79
50702;BME280;36670;50.094;8.496;2023-10-19T11:22:24;98252.91;;;20.09;60.33
50702;BME280;36670;50.094;8.496;2023-10-19T11:24:53;98255.41;;;19.78;61.58
50702;BME280;36670;50.094;8.496;2023-10-19T11:29:58;98256.97;;;18.96;63.38
50702;BME280;36670;50.094;8.496;2023-10-19T11:32:24;98254.00;;;19.05;63.30
50702;BME280;36670;50.094;8.496;2023-10-19T11:34:54;98253.38;;;19.27;62.96
50702;BME280;36670;50.094;8.496;2023-10-19T11:37:19;98247.75;;;19.27;63.21
50702;BME280;36670;50.094;8.496;2023-10-19T11:39:44;98247.94;;;19.19;63.58
50702;BME280;36670;50.094;8.496;2023-10-19T11:42:10;98241.63;;;19.22;63.94
50702;BME280;36670;50.094;8.496;2023-10-19T11:44:36;98239.56;;;19.35;63.82
50702;BME280;36670;50.094;8.496;2023-10-19T11:47:01;98239.66;;;19.38;63.87
50702;BME280;36670;50.094;8.496;2023-10-19T11:49:27;98231.34;;;19.26;64.02
50702;BME280;36670;50.094;8.496;2023-10-19T11:51:52;98226.50;;;19.07;64.26
50702;BME280;36670;50.094;8.496;2023-10-19T11:54:17;98224.13;;;19.09;64.74
50702;BME280;36670;50.094;8.496;2023-10-19T11:56:43;98220.50;;;18.92;65.42
50702;BME280;36670;50.094;8.496;2023-10-19T11:59:09;98210.88;;;18.62;66.25
50702;BME280;36670;50.094;8.496;2023-10-19T12:01:37;98213.59;;;18.58;66.55
50702;BME280;36670;50.094;8.496;2023-10-19T12:04:04;98218.44;;;19.21;65.04
50702;BME280;36670;50.094;8.496;2023-10-19T12:06:30;98207.97;;;19.34;64.52
50702;BME280;36670;50.094;8.496;2023-10-19T12:08:56;98208.16;;;19.77;64.11
50702;BME280;36670;50.094;8.496;2023-10-19T12:11:24;98201.59;;;20.05;63.88
50702;BME280;36670;50.094;8.496;2023-10-19T12:13:49;98209.75;;;19.94;64.11
50702;BME280;36670;50.094;8.496;2023-10-19T12:16:15;98197.38;;;20.34;62.90
50702;BME280;36670;50.094;8.496;2023-10-19T12:18:44;98203.56;;;20.83;61.96
50702;BME280;36670;50.094;8.496;2023-10-19T12:21:10;98204.72;;;20.62;61.70
50702;BME280;36670;50.094;8.496;2023-10-19T12:23:44;98198.53;;;20.72;61.83
50702;BME280;36670;50.094;8.496;2023-10-19T12:26:09;98197.38;;;20.54;61.36
50702;BME280;36670;50.094;8.496;2023-10-19T12:28:38;98205.19;;;20.44;62.23
50702;BME280;36670;50.094;8.496;2023-10-19T12:31:04;98199.50;;;21.03;61.46
50702;BME280;36670;50.094;8.496;2023-10-19T12:33:30;98195.94;;;21.29;60.48
50702;BME280;36670;50.094;8.496;2023-10-19T12:35:56;98196.16;;;21.44;60.48
50702;BME280;36670;50.094;8.496;2023-10-19T12:38:24;98184.72;;;21.06;60.42
50702;BME280;36670;50.094;8.496;2023-10-19T12:40:50;98185.03;;;21.51;60.10
50702;BME280;36670;50.094;8.496;2023-10-19T12:43:17;98178.72;;;21.31;60.29
50702;BME280;36670;50.094;8.496;2023-10-19T12:45:50;98181.19;;;21.59;59.46
50702;BME280;36670;50.094;8.496;2023-10-19T12:48:16;98168.66;;;21.83;59.54
50702;BME280;36670;50.094;8.496;2023-10-19T12:50:41;98167.63;;;21.42;59.45
50702;BME280;36670;50.094;8.496;2023-10-19T12:53:07;98174.41;;;21.37;59.28
50702;BME280;36670;50.094;8.496;2023-10-19T12:55:33;98173.16;;;21.35;59.28
50702;BME280;36670;50.094;8.496;2023-10-19T12:57:59;98166.94;;;21.48;60.23
50702;BME280;36670;50.094;8.496;2023-10-19T13:00:32;98166.06;;;21.68;58.93
50702;BME280;36670;50.094;8.496;2023-10-19T13:03:03;98165.69;;;21.46;59.72
50702;BME280;36670;50.094;8.496;2023-10-19T13:05:36;98161.66;;;21.43;59.50
50702;BME280;36670;50.094;8.496;2023-10-19T13:08:06;98169.16;;;21.59;59.30
50702;BME280;36670;50.094;8.496;2023-10-19T13:10:32;98161.53;;;21.36;59.82
50702;BME280;36670;50.094;8.496;2023-10-19T13:13:04;98156.75;;;21.37;59.70
50702;BME280;36670;50.094;8.496;2023-10-19T13:15:34;98148.44;;;21.44;59.71
50702;BME280;36670;50.094;8.496;2023-10-19T13:18:01;98144.53;;;21.79;58.88